Time;durP1;ratioP1;P1;durP2;ratioP2;P2;SDS_P1;SDS_P2;PMS_P1;PMS_P2;Temp;Humidity;BMP_temperature;BMP_pressure;BME280_temperature;BME280_humidity;BME280_pressure;Samples;Min_cycle;Max_cycle;Signal;HPM_P1;HPM_P2
2023/07/27 00:01:29;;;;;;;;;;;;;;;22.07;50.74;100694.03;4965553;28;4149;-66
2023/07/27 00:03:56;;;;;;;;;;;;;;;22.06;50.50;100698.34;4968168;28;4050;-66
2023/07/27 00:06:22;;;;;;;;;;;;;;;22.06;50.66;100695.47;4965870;28;4036;-66
2023/07/27 00:08:49;;;;;;;;;;;;;;;22.06;50.83;100688.94;4968227;28;4287;-66
2023/07/27 00:11:15;;;;;;;;;;;;;;;22.05;50.54;100684.59;4966170;28;4193;-66
2023/07/27 00:13:41;;;;;;;;;;;;;;;22.00;50.75;100689.47;4964392;28;4142;-66
2023/07/27 00:16:08;;;;;;;;;;;;;;;22.02;50.75;100683.78;4969037;28;4211;-66
2023/07/27 00:18:34;;;;;;;;;;;;;;;22.00;50.92;100689.47;4970910;28;4167;-66
2023/07/27 00:21:01;;;;;;;;;;;;;;;21.98;50.69;100688.66;4967359;28;4331;-66
2023/07/27 00:23:27;;;;;;;;;;;;;;;21.99;50.88;100685.13;4964559;28;4249;-65
2023/07/27 00:25:53;;;;;;;;;;;;;;;21.99;50.79;100684.34;4966241;28;4156;-66
2023/07/27 00:28:20;;;;;;;;;;;;;;;21.97;50.70;100682.16;4965944;28;4077;-66
2023/07/27 00:30:51;;;;;;;;;;;;;;;21.95;50.92;100690.72;4962085;28;4066;-66
2023/07/27 00:33:18;;;;;;;;;;;;;;;21.94;51.04;100692.09;4980395;28;4199;-66
2023/07/27 00:35:52;;;;;;;;;;;;;;;21.93;50.93;100685.63;4965023;28;4063;-66
2023/07/27 00:38:19;;;;;;;;;;;;;;;21.92;50.86;100683.38;4967933;28;4150;-66
2023/07/27 00:40:48;;;;;;;;;;;;;;;21.94;50.63;100684.22;4964629;28;4126;-66
2023/07/27 00:43:14;;;;;;;;;;;;;;;21.92;50.70;100686.25;4965727;28;4214;-66
2023/07/27 00:45:41;;;;;;;;;;;;;;;21.93;50.70;100676.97;4969994;28;4139;-66
2023/07/27 00:48:09;;;;;;;;;;;;;;;21.90;50.94;100680.44;4980799;28;4217;-66
2023/07/27 00:50:35;;;;;;;;;;;;;;;21.91;50.84;100679.03;4972658;28;4181;-66
2023/07/27 00:53:05;;;;;;;;;;;;;;;21.89;50.59;100685.47;4970779;28;4028;-66
2023/07/27 00:55:31;;;;;;;;;;;;;;;21.87;50.71;100685.38;4970714;28;4038;-66
2023/07/27 00:57:58;;;;;;;;;;;;;;;21.86;50.84;100683.19;4969021;28;4395;-66
2023/07/27 01:00:25;;;;;;;;;;;;;;;21.83;50.90;100681.59;4969503;28;4001;-66
2023/07/27 01:02:51;;;;;;;;;;;;;;;21.87;50.86;100678.88;4969517;28;4014;-66
2023/07/27 01:05:18;;;;;;;;;;;;;;;21.88;50.76;100680.38;4971430;28;4212;-66
2023/07/27 01:07:44;;;;;;;;;;;;;;;21.86;50.88;100671.66;4970829;28;3976;-66
2023/07/27 01:10:11;;;;;;;;;;;;;;;21.84;50.73;100665.81;4974813;28;4013;-66
2023/07/27 01:12:48;;;;;;;;;;;;;;;21.87;50.57;100681.75;4970376;28;4142;-66
2023/07/27 01:15:15;;;;;;;;;;;;;;;21.85;50.64;100670.16;4978735;28;4125;-66
2023/07/27 01:17:47;;;;;;;;;;;;;;;21.91;50.74;100679.03;4968835;28;4525;-66
2023/07/27 01:20:15;;;;;;;;;;;;;;;21.90;50.76;100658.13;4970469;28;4121;-66
2023/07/27 01:22:51;;;;;;;;;;;;;;;21.90;50.58;100666.03;4971071;28;4074;-66
2023/07/27 01:25:37;;;;;;;;;;;;;;;21.89;50.81;100664.53;4954231;28;4229;-66
2023/07/27 01:28:13;;;;;;;;;;;;;;;21.86;51.00;100657.97;4966192;28;5384;-66
2023/07/27 01:30:48;;;;;;;;;;;;;;;21.85;50.86;100652.84;4967871;28;4064;-66
2023/07/27 01:33:14;;;;;;;;;;;;;;;21.82;50.71;100648.44;4984232;28;4055;-66
2023/07/27 01:35:47;;;;;;;;;;;;;;;21.80;50.89;100651.22;4972556;28;4008;-66
2023/07/27 01:38:14;;;;;;;;;;;;;;;21.81;51.07;100644.09;4975205;28;4069;-66
2023/07/27 01:40:40;;;;;;;;;;;;;;;21.83;50.78;100644.88;4974324;28;4162;-66
2023/07/27 01:43:06;;;;;;;;;;;;;;;21.81;50.96;100647.69;4966506;28;4311;-66
2023/07/27 01:45:33;;;;;;;;;;;;;;;21.79;51.07;100644.00;4970439;28;4169;-66
2023/07/27 01:47:59;;;;;;;;;;;;;;;21.78;51.05;100651.16;4967059;28;4120;-66
2023/07/27 01:50:26;;;;;;;;;;;;;;;21.78;51.02;100654.03;4965623;28;4632;-66
2023/07/27 01:52:53;;;;;;;;;;;;;;;21.75;50.99;100645.31;4970570;28;4051;-66
2023/07/27 01:55:20;;;;;;;;;;;;;;;21.74;51.14;100652.50;4966272;28;4980;-66
2023/07/27 01:57:47;;;;;;;;;;;;;;;21.77;50.84;100649.69;4973347;28;4021;-66
2023/07/27 02:00:13;;;;;;;;;;;;;;;21.77;50.81;100646.81;4968670;28;4202;-66
2023/07/27 02:02:39;;;;;;;;;;;;;;;21.77;50.75;100643.91;4973228;28;4477;-66
2023/07/27 02:05:08;;;;;;;;;;;;;;;21.79;50.96;100649.78;4982708;28;4007;-66
2023/07/27 02:07:35;;;;;;;;;;;;;;;21.76;51.10;100648.94;4968405;28;4191;-66
2023/07/27 02:10:01;;;;;;;;;;;;;;;21.78;51.00;100654.78;4965409;28;4122;-67
2023/07/27 02:12:32;;;;;;;;;;;;;;;21.82;50.91;100654.19;4968995;28;4270;-66
2023/07/27 02:15:02;;;;;;;;;;;;;;;21.80;50.88;100654.84;4976724;28;4120;-66
2023/07/27 02:17:31;;;;;;;;;;;;;;;21.85;50.87;100658.63;4990314;28;4197;-66
2023/07/27 02:19:57;;;;;;;;;;;;;;;21.83;50.96;100655.66;4957576;28;4126;-66
2023/07/27 02:22:24;;;;;;;;;;;;;;;21.83;50.98;100650.66;4975552;28;4160;-66
2023/07/27 02:24:50;;;;;;;;;;;;;;;21.79;51.01;100647.63;4968335;28;4337;-66
2023/07/27 02:27:17;;;;;;;;;;;;;;;21.74;51.13;100643.84;5002100;28;4857;-66
2023/07/27 02:29:44;;;;;;;;;;;;;;;21.71;51.08;100639.38;4999363;28;4183;-66
2023/07/27 02:32:10;;;;;;;;;;;;;;;21.69;51.01;100642.22;4997304;28;4538;-66
2023/07/27 02:34:36;;;;;;;;;;;;;;;21.70;51.12;100637.94;4967145;28;4150;-66
2023/07/27 02:37:04;;;;;;;;;;;;;;;21.70;50.95;100637.19;5004268;28;4209;-66
2023/07/27 02:39:31;;;;;;;;;;;;;;;21.70;51.19;100634.31;5002024;28;4231;-66
2023/07/27 02:41:58;;;;;;;;;;;;;;;21.69;51.19;100635.69;4969331;28;4790;-67
2023/07/27 02:44:25;;;;;;;;;;;;;;;21.67;51.19;100642.16;4967914;28;4008;-66
2023/07/27 02:46:51;;;;;;;;;;;;;;;21.69;50.93;100635.69;4966208;28;5535;-66
2023/07/27 02:49:17;;;;;;;;;;;;;;;21.67;51.10;100627.75;4964384;28;4104;-66
2023/07/27 02:51:44;;;;;;;;;;;;;;;21.68;50.97;100626.31;4966549;28;4028;-66
2023/07/27 02:54:10;;;;;;;;;;;;;;;21.70;51.06;100620.63;4972124;28;4812;-66
2023/07/27 02:56:37;;;;;;;;;;;;;;;21.72;50.80;100628.63;4967826;28;4065;-66
2023/07/27 02:59:03;;;;;;;;;;;;;;;21.70;50.86;100626.41;4984902;28;4298;-66
2023/07/27 03:01:36;;;;;;;;;;;;;;;21.70;51.17;100634.31;4982182;28;4048;-66
2023/07/27 03:04:06;;;;;;;;;;;;;;;21.65;51.01;100627.66;4983319;28;5238;-66
2023/07/27 03:06:33;;;;;;;;;;;;;;;21.66;50.81;100629.13;4965827;28;4203;-66
2023/07/27 03:09:01;;;;;;;;;;;;;;;21.65;50.87;100630.53;4981204;28;4166;-66
2023/07/27 03:11:30;;;;;;;;;;;;;;;21.65;50.93;100633.41;4983433;28;4132;-66
2023/07/27 03:13:56;;;;;;;;;;;;;;;21.63;51.10;100624.69;4968450;28;4238;-66
2023/07/27 03:16:22;;;;;;;;;;;;;;;21.61;50.88;100630.38;4963888;28;4250;-66
2023/07/27 03:18:50;;;;;;;;;;;;;;;21.58;51.21;100634.59;4963325;28;4405;-66
2023/07/27 03:21:17;;;;;;;;;;;;;;;21.53;51.23;100635.81;4986927;28;4105;-66
2023/07/27 03:23:46;;;;;;;;;;;;;;;21.52;50.94;100640.13;4967659;28;4151;-66
2023/07/27 03:26:13;;;;;;;;;;;;;;;21.48;51.13;100634.19;4966143;28;4052;-65
2023/07/27 03:28:39;;;;;;;;;;;;;;;21.51;50.70;100630.00;4967160;28;4392;-66
2023/07/27 03:31:13;;;;;;;;;;;;;;;21.47;50.99;100626.97;4983985;28;4160;-66
2023/07/27 03:33:40;;;;;;;;;;;;;;;21.60;50.72;100631.78;4970405;28;4241;-62
2023/07/27 03:36:06;;;;;;;;;;;;;;;21.24;51.10;100640.47;4972194;28;5373;-66
2023/07/27 03:38:35;;;;;;;;;;;;;;;21.24;51.04;100631.09;4968780;28;4513;-66
2023/07/27 03:41:01;;;;;;;;;;;;;;;21.32;51.03;100632.13;4977120;28;4239;-66
2023/07/27 03:43:29;;;;;;;;;;;;;;;21.39;50.64;100618.72;4979715;28;4175;-66
2023/07/27 03:45:55;;;;;;;;;;;;;;;21.47;50.28;100621.94;4962846;28;4113;-66
2023/07/27 03:48:21;;;;;;;;;;;;;;;21.52;50.12;100622.84;4981862;28;4494;-66
2023/07/27 03:50:48;;;;;;;;;;;;;;;21.51;50.25;100615.59;4962019;28;4195;-65
2023/07/27 03:53:14;;;;;;;;;;;;;;;21.47;50.67;100615.44;4965377;28;5392;-66
2023/07/27 03:55:43;;;;;;;;;;;;;;;21.51;50.19;100609.84;4964826;28;4224;-65
2023/07/27 03:58:09;;;;;;;;;;;;;;;21.48;50.25;100611.16;4979721;28;4059;-65
2023/07/27 04:00:36;;;;;;;;;;;;;;;21.45;50.46;100606.72;4969215;28;4418;-65
2023/07/27 04:03:02;;;;;;;;;;;;;;;21.48;50.26;100605.38;4981733;28;4232;-71
2023/07/27 04:05:31;;;;;;;;;;;;;;;21.47;50.17;100603.91;4979520;28;4102;-68
2023/07/27 04:07:57;;;;;;;;;;;;;;;21.46;50.26;100605.31;4972181;28;4150;-68
2023/07/27 04:10:24;;;;;;;;;;;;;;;21.50;50.41;100614.09;4971806;28;4034;-67
2023/07/27 04:12:51;;;;;;;;;;;;;;;21.44;50.24;100605.22;4969711;28;4117;-68
2023/07/27 04:15:18;;;;;;;;;;;;;;;21.44;50.41;100611.00;4969628;28;4129;-68
2023/07/27 04:17:44;;;;;;;;;;;;;;;21.46;50.56;100602.44;4969842;28;4192;-68
2023/07/27 04:20:11;;;;;;;;;;;;;;;21.41;50.78;100597.94;4983900;28;4217;-68
2023/07/27 04:22:37;;;;;;;;;;;;;;;21.41;50.82;100595.03;4980306;28;4173;-68
2023/07/27 04:25:04;;;;;;;;;;;;;;;21.38;50.67;100605.72;4968153;28;4154;-68
2023/07/27 04:27:30;;;;;;;;;;;;;;;21.42;50.65;100596.53;4964113;28;4186;-67
2023/07/27 04:29:57;;;;;;;;;;;;;;;21.38;50.92;100602.09;4969263;28;3976;-68
2023/07/27 04:32:23;;;;;;;;;;;;;;;21.36;50.98;100604.91;4972298;28;4191;-68
2023/07/27 04:34:50;;;;;;;;;;;;;;;21.28;51.26;100603.19;4969011;28;4105;-68
2023/07/27 04:37:16;;;;;;;;;;;;;;;21.28;51.43;100605.31;4974679;28;4354;-68
2023/07/27 04:39:42;;;;;;;;;;;;;;;21.28;51.24;100606.09;4968189;28;4450;-68
2023/07/27 04:42:09;;;;;;;;;;;;;;;21.30;51.31;100603.28;4985262;28;4200;-68
2023/07/27 04:44:35;;;;;;;;;;;;;;;21.34;51.13;100591.91;4972313;28;4099;-68
2023/07/27 04:47:02;;;;;;;;;;;;;;;21.28;51.51;100594.56;4968620;28;5039;-67
2023/07/27 04:49:28;;;;;;;;;;;;;;;21.27;51.37;100598.81;4968101;28;4188;-67
2023/07/27 04:51:55;;;;;;;;;;;;;;;21.33;51.51;100590.44;4982043;28;4170;-68
2023/07/27 04:54:21;;;;;;;;;;;;;;;21.28;51.41;100600.31;4966353;28;4066;-68
2023/07/27 04:56:48;;;;;;;;;;;;;;;21.29;51.35;100587.38;4971802;28;4465;-68
2023/07/27 04:59:14;;;;;;;;;;;;;;;21.27;51.40;100593.06;4965163;28;4172;-68
2023/07/27 05:01:41;;;;;;;;;;;;;;;21.39;51.28;100595.66;4968827;28;4095;-68
2023/07/27 05:04:07;;;;;;;;;;;;;;;21.36;51.14;100593.38;4970180;28;4076;-68
2023/07/27 05:06:34;;;;;;;;;;;;;;;21.32;51.22;100599.72;4966022;28;4073;-68
2023/07/27 05:09:01;;;;;;;;;;;;;;;21.30;51.22;100591.00;4967177;28;4536;-68
2023/07/27 05:11:29;;;;;;;;;;;;;;;21.34;51.16;100589.00;4968002;28;4134;-67
2023/07/27 05:13:55;;;;;;;;;;;;;;;21.34;51.04;100583.25;4966282;28;4021;-68
2023/07/27 05:16:21;;;;;;;;;;;;;;;21.41;51.09;100590.00;4970693;28;4136;-68
2023/07/27 05:18:48;;;;;;;;;;;;;;;21.46;50.83;100596.66;4967083;28;4110;-69
2023/07/27 05:21:14;;;;;;;;;;;;;;;21.45;50.92;100590.16;4971492;28;4047;-69
2023/07/27 05:23:41;;;;;;;;;;;;;;;21.46;50.95;100590.91;4966693;28;4064;-68
2023/07/27 05:26:07;;;;;;;;;;;;;;;21.46;51.04;100590.91;4969853;28;4338;-68
2023/07/27 05:28:33;;;;;;;;;;;;;;;21.45;50.81;100589.44;4970009;28;4132;-67
2023/07/27 05:31:00;;;;;;;;;;;;;;;21.39;51.03;100587.03;4966327;28;4033;-67
2023/07/27 05:33:26;;;;;;;;;;;;;;;21.36;50.92;100581.88;4964835;28;4172;-66
2023/07/27 05:35:53;;;;;;;;;;;;;;;21.29;51.34;100583.78;4966350;28;3977;-67
2023/07/27 05:38:19;;;;;;;;;;;;;;;21.29;51.30;100586.66;4967358;28;4196;-67
2023/07/27 05:40:46;;;;;;;;;;;;;;;21.27;51.42;100586.56;4972410;28;4209;-67
2023/07/27 05:43:12;;;;;;;;;;;;;;;21.25;51.46;100584.34;4970177;28;4085;-67
2023/07/27 05:45:38;;;;;;;;;;;;;;;21.26;51.43;100580.09;4970142;28;4163;-67
2023/07/27 05:48:05;;;;;;;;;;;;;;;21.27;51.49;100581.56;4973474;28;4480;-67
2023/07/27 05:50:32;;;;;;;;;;;;;;;21.27;51.46;100575.06;4969176;28;4318;-68
2023/07/27 05:52:59;;;;;;;;;;;;;;;21.25;51.60;100578.59;4971759;28;4026;-68
2023/07/27 05:55:25;;;;;;;;;;;;;;;21.33;51.10;100583.94;4970301;28;4068;-67
2023/07/27 05:57:51;;;;;;;;;;;;;;;21.34;51.21;100577.50;4972410;28;4357;-67
2023/07/27 06:00:18;;;;;;;;;;;;;;;21.27;51.60;100581.56;4968402;28;4070;-67
2023/07/27 06:02:53;;;;;;;;;;;;;;;21.32;51.21;100568.78;4950665;28;4110;-69
2023/07/27 06:05:19;;;;;;;;;;;;;;;21.33;51.28;100567.38;4968394;28;4358;-69
2023/07/27 06:07:46;;;;;;;;;;;;;;;21.38;50.94;100562.50;4973064;28;4036;-69
2023/07/27 06:10:12;;;;;;;;;;;;;;;21.33;51.33;100566.66;4969668;28;4359;-69
2023/07/27 06:12:39;;;;;;;;;;;;;;;21.44;51.06;100567.78;4972520;28;4196;-70
2023/07/27 06:15:05;;;;;;;;;;;;;;;21.44;50.68;100559.13;4971664;28;4172;-70
2023/07/27 06:17:32;;;;;;;;;;;;;;;21.53;50.78;100561.69;4968971;28;4095;-69
2023/07/27 06:19:58;;;;;;;;;;;;;;;21.57;50.74;100549.53;4967845;28;4138;-70
2023/07/27 06:22:25;;;;;;;;;;;;;;;21.57;50.64;100561.06;4971126;28;4175;-70
2023/07/27 06:24:51;;;;;;;;;;;;;;;21.60;50.46;100562.66;4969792;28;4000;-68
2023/07/27 06:27:18;;;;;;;;;;;;;;;21.64;50.45;100565.66;4973629;28;4110;-70
2023/07/27 06:29:44;;;;;;;;;;;;;;;21.63;50.66;100569.94;4970996;28;3990;-69
2023/07/27 06:32:10;;;;;;;;;;;;;;;21.63;50.56;100569.94;4969954;28;4050;-70
2023/07/27 06:34:37;;;;;;;;;;;;;;;21.57;50.54;100566.84;4969422;28;4162;-69
2023/07/27 06:37:05;;;;;;;;;;;;;;;21.29;50.58;100566.50;4969100;28;4078;-69
2023/07/27 06:39:32;;;;;;;;;;;;;;;21.25;50.52;100567.06;4968673;28;4088;-68
2023/07/27 06:41:58;;;;;;;;;;;;;;;21.33;50.40;100561.63;4971134;28;4374;-69
2023/07/27 06:44:31;;;;;;;;;;;;;;;21.41;50.63;100560.47;4963789;28;4485;-68
2023/07/27 06:46:57;;;;;;;;;;;;;;;21.38;50.71;100570.44;4972639;28;4191;-68
2023/07/27 06:49:24;;;;;;;;;;;;;;;21.37;50.88;100563.19;4970754;28;4363;-68
2023/07/27 06:51:50;;;;;;;;;;;;;;;21.33;51.01;100555.88;4969976;28;4435;-68
2023/07/27 06:54:18;;;;;;;;;;;;;;;21.40;50.75;100558.97;4972531;28;4112;-68
2023/07/27 06:56:45;;;;;;;;;;;;;;;21.72;50.89;100554.44;4971904;28;3998;-67
2023/07/27 06:59:11;;;;;;;;;;;;;;;22.21;49.96;100548.88;4970837;28;4114;-68
2023/07/27 07:01:38;;;;;;;;;;;;;;;22.15;49.93;100555.94;4973675;28;4229;-66
2023/07/27 07:04:05;;;;;;;;;;;;;;;22.02;49.48;100554.03;4976593;28;4134;-69
2023/07/27 07:06:32;;;;;;;;;;;;;;;21.99;49.74;100552.50;4969200;28;4136;-67
2023/07/27 07:08:59;;;;;;;;;;;;;;;21.87;49.88;100552.03;4971872;28;4007;-67
2023/07/27 07:11:25;;;;;;;;;;;;;;;21.73;50.27;100550.13;4972420;28;4179;-67
2023/07/27 07:13:52;;;;;;;;;;;;;;;21.65;50.65;100552.75;4971850;28;4054;-67
2023/07/27 07:16:18;;;;;;;;;;;;;;;21.70;50.73;100545.72;4973136;28;4065;-67
2023/07/27 07:18:45;;;;;;;;;;;;;;;21.77;50.27;100543.78;4969106;28;4060;-67
2023/07/27 07:21:11;;;;;;;;;;;;;;;21.71;50.67;100544.28;4972146;28;4208;-66
2023/07/27 07:23:37;;;;;;;;;;;;;;;21.74;50.61;100542.25;4969811;28;6098;-67
2023/07/27 07:26:04;;;;;;;;;;;;;;;21.92;50.42;100553.66;4978762;28;4120;-68
2023/07/27 07:28:30;;;;;;;;;;;;;;;22.10;50.07;100562.94;4980031;28;4099;-66
2023/07/27 07:30:57;;;;;;;;;;;;;;;22.14;50.23;100571.75;4965932;28;4135;-67
2023/07/27 07:33:23;;;;;;;;;;;;;;;22.17;50.03;100561.75;4972693;28;4122;-67
2023/07/27 07:35:50;;;;;;;;;;;;;;;22.03;50.10;100558.38;4972353;28;3979;-66
2023/07/27 07:38:16;;;;;;;;;;;;;;;21.87;50.14;100554.94;4966301;28;4126;-66
2023/07/27 07:40:44;;;;;;;;;;;;;;;21.96;50.50;100548.03;4964968;28;4149;-67
2023/07/27 07:43:10;;;;;;;;;;;;;;;21.81;50.26;100548.97;4983886;28;4334;-66
2023/07/27 07:45:37;;;;;;;;;;;;;;;21.65;50.83;100543.34;4967411;28;4165;-66
2023/07/27 07:48:04;;;;;;;;;;;;;;;21.43;51.21;100541.13;4967166;28;4171;-66
2023/07/27 07:50:30;;;;;;;;;;;;;;;21.39;51.11;100546.69;4966411;28;4127;-66
2023/07/27 07:52:57;;;;;;;;;;;;;;;21.58;50.94;100539.50;4970583;28;4262;-66
2023/07/27 07:55:23;;;;;;;;;;;;;;;21.62;51.11;100542.53;4967082;28;4055;-67
2023/07/27 07:57:50;;;;;;;;;;;;;;;21.70;50.51;100539.94;4965348;28;4242;-66
2023/07/27 08:00:16;;;;;;;;;;;;;;;21.74;50.75;100534.34;4963338;28;4041;-67
2023/07/27 08:02:44;;;;;;;;;;;;;;;21.80;50.28;100535.94;4964923;28;4175;-67
2023/07/27 08:05:10;;;;;;;;;;;;;;;21.80;51.16;100528.03;4965954;28;4122;-66
2023/07/27 08:07:37;;;;;;;;;;;;;;;22.07;50.92;100535.44;4965777;28;4165;-68
2023/07/27 08:10:04;;;;;;;;;;;;;;;22.14;50.43;100522.72;4971166;28;4206;-67
2023/07/27 08:12:31;;;;;;;;;;;;;;;22.12;50.46;100519.75;4964549;28;4593;-67
2023/07/27 08:14:57;;;;;;;;;;;;;;;22.15;50.61;100521.31;4966376;28;4289;-67
2023/07/27 08:17:24;;;;;;;;;;;;;;;22.16;50.71;100525.66;4963757;28;4029;-69
2023/07/27 08:19:50;;;;;;;;;;;;;;;22.16;50.87;100517.03;4979965;28;4511;-68
2023/07/27 08:22:16;;;;;;;;;;;;;;;22.29;50.45;100514.59;4968067;28;4127;-69
2023/07/27 08:24:43;;;;;;;;;;;;;;;22.31;50.48;100511.75;4967319;28;4124;-69
2023/07/27 08:27:10;;;;;;;;;;;;;;;22.47;50.13;100505.75;4966834;28;5034;-68
2023/07/27 08:29:37;;;;;;;;;;;;;;;22.46;49.66;100499.25;4965225;28;4154;-69
2023/07/27 08:32:03;;;;;;;;;;;;;;;22.36;49.83;100496.06;4963605;28;4113;-69
2023/07/27 08:34:30;;;;;;;;;;;;;;;22.40;49.97;100483.91;4966616;28;4229;-69
2023/07/27 08:36:56;;;;;;;;;;;;;;;22.44;49.81;100481.16;4965331;28;4547;-69
2023/07/27 08:39:23;;;;;;;;;;;;;;;22.43;49.86;100482.56;4967581;28;4569;-69
2023/07/27 08:41:49;;;;;;;;;;;;;;;22.43;49.96;100477.53;4965937;28;3968;-70
2023/07/27 08:44:15;;;;;;;;;;;;;;;22.43;49.70;100477.53;4967120;28;4370;-68
2023/07/27 08:46:42;;;;;;;;;;;;;;;22.55;49.38;100472.13;4967015;28;4049;-68
2023/07/27 08:49:09;;;;;;;;;;;;;;;22.45;50.08;100468.94;4972616;28;4100;-68
2023/07/27 08:51:35;;;;;;;;;;;;;;;22.49;49.93;100462.56;4969733;28;4564;-67
2023/07/27 08:54:01;;;;;;;;;;;;;;;22.49;49.88;100457.50;4964345;28;4213;-68
2023/07/27 08:56:28;;;;;;;;;;;;;;;22.47;50.03;100462.50;4963823;28;4101;-68
2023/07/27 08:58:54;;;;;;;;;;;;;;;21.88;51.06;100452.66;4962212;28;4204;-66
2023/07/27 09:01:21;;;;;;;;;;;;;;;21.77;51.63;100445.06;4963986;28;4162;-67
2023/07/27 09:03:47;;;;;;;;;;;;;;;22.02;51.08;100452.38;4965210;28;4692;-68
2023/07/27 09:06:14;;;;;;;;;;;;;;;22.20;50.63;100443.59;4966583;28;4474;-69
2023/07/27 09:08:41;;;;;;;;;;;;;;;22.26;50.72;100453.19;4978794;28;4191;-67
2023/07/27 09:11:07;;;;;;;;;;;;;;;21.97;51.17;100445.75;4967450;28;4597;-67
2023/07/27 09:13:35;;;;;;;;;;;;;;;21.69;51.92;100449.16;4972800;28;5295;-67
2023/07/27 09:16:02;;;;;;;;;;;;;;;21.73;51.96;100439.88;4980227;28;4352;-66
2023/07/27 09:18:33;;;;;;;;;;;;;;;21.81;51.85;100451.69;4969978;28;4123;-66
2023/07/27 09:21:00;;;;;;;;;;;;;;;21.78;52.16;100452.28;4971465;28;4645;-67
2023/07/27 09:23:26;;;;;;;;;;;;;;;21.80;52.13;100443.72;4977913;28;4255;-67
2023/07/27 09:25:53;;;;;;;;;;;;;;;21.79;51.95;100442.25;4960251;28;5012;-67
2023/07/27 09:28:23;;;;;;;;;;;;;;;21.75;52.05;100449.34;4972819;28;4044;-67
2023/07/27 09:30:50;;;;;;;;;;;;;;;21.73;52.25;100440.63;4966490;28;4477;-73
2023/07/27 09:33:21;;;;;;;;;;;;;;;21.77;52.09;100440.03;4975398;28;4190;-67
2023/07/27 09:35:48;;;;;;;;;;;;;;;21.98;52.64;100443.59;4968057;28;4467;-67
2023/07/27 09:38:14;;;;;;;;;;;;;;;22.28;51.83;100443.88;4971928;28;4229;-67
2023/07/27 09:40:41;;;;;;;;;;;;;;;22.36;51.61;100435.50;4968033;28;4452;-68
2023/07/27 09:43:07;;;;;;;;;;;;;;;22.47;51.11;100430.75;4978816;28;4091;-68
2023/07/27 09:45:37;;;;;;;;;;;;;;;22.54;51.14;100423.75;4978037;28;5050;-69
2023/07/27 09:48:04;;;;;;;;;;;;;;;22.61;50.46;100418.91;4978123;28;4302;-67
2023/07/27 09:50:31;;;;;;;;;;;;;;;22.69;50.75;100411.22;4970926;28;4305;-67
2023/07/27 09:52:57;;;;;;;;;;;;;;;22.75;50.19;100404.91;4978126;28;4104;-71
2023/07/27 09:55:23;;;;;;;;;;;;;;;22.79;50.24;100408.66;4969052;28;4073;-67
2023/07/27 09:57:50;;;;;;;;;;;;;;;22.80;50.20;100412.28;4972830;28;4034;-67
2023/07/27 10:00:16;;;;;;;;;;;;;;;22.83;50.18;100407.28;4977517;28;3972;-68
2023/07/27 10:02:43;;;;;;;;;;;;;;;22.58;50.11;100406.56;4972704;28;4051;-67
2023/07/27 10:05:09;;;;;;;;;;;;;;;22.32;50.87;100400.75;4969706;28;4136;-73
2023/07/27 10:07:37;;;;;;;;;;;;;;;22.34;50.84;100400.81;4967941;28;4534;-68
2023/07/27 10:10:28;;;;;;;;;;;;;;;22.48;50.53;100407.00;4969676;28;4353;-66
2023/07/27 10:12:55;;;;;;;;;;;;;;;22.46;50.60;100412.72;4970665;28;4010;-67
2023/07/27 10:15:21;;;;;;;;;;;;;;;22.54;50.31;100407.19;4964600;28;4397;-67
2023/07/27 10:17:51;;;;;;;;;;;;;;;22.42;50.71;100409.69;4983412;28;4800;-66
2023/07/27 10:20:21;;;;;;;;;;;;;;;22.26;51.00;100417.84;4967047;28;4232;-67
2023/07/27 10:22:52;;;;;;;;;;;;;;;22.16;51.41;100418.25;4970203;28;4344;-67
2023/07/27 10:25:19;;;;;;;;;;;;;;;22.11;51.72;100431.78;4962662;28;4211;-67
2023/07/27 10:27:55;;;;;;;;;;;;;;;22.10;51.67;100430.31;4969222;28;4421;-67
2023/07/27 10:30:22;;;;;;;;;;;;;;;22.09;51.93;100442.53;4966650;28;4385;-67
2023/07/27 10:33:06;;;;;;;;;;;;;;;22.11;52.02;100431.78;4981995;28;4429;-75
2023/07/27 10:35:52;;;;;;;;;;;;;;;22.29;51.90;100428.78;4968619;28;5129;-68
2023/07/27 10:38:19;;;;;;;;;;;;;;;22.64;51.85;100424.06;4971446;28;4087;-69
2023/07/27 10:40:46;;;;;;;;;;;;;;;22.58;51.05;100418.84;4970176;28;4646;-67
2023/07/27 10:43:12;;;;;;;;;;;;;;;22.51;51.20;100422.97;4973291;28;4196;-70
2023/07/27 10:45:51;;;;;;;;;;;;;;;22.51;50.89;100419.34;4972769;28;4213;-67
2023/07/27 10:48:18;;;;;;;;;;;;;;;22.61;51.75;100416.03;4975593;28;4370;-66
2023/07/27 10:50:44;;;;;;;;;;;;;;;22.92;50.86;100421.28;4974164;28;6209;-66
2023/07/27 10:53:10;;;;;;;;;;;;;;;23.03;50.59;100410.06;4962430;28;4329;-68
2023/07/27 10:55:37;;;;;;;;;;;;;;;23.08;50.57;100412.38;4974149;28;4404;-66
2023/07/27 10:58:04;;;;;;;;;;;;;;;23.07;50.48;100413.06;4972765;28;4196;-67
2023/07/27 11:00:37;;;;;;;;;;;;;;;23.09;50.41;100405.19;5005006;28;4137;-66
2023/07/27 11:03:03;;;;;;;;;;;;;;;23.03;50.17;100407.16;4971162;28;4098;-64
2023/07/27 11:05:30;;;;;;;;;;;;;;;22.88;50.88;100398.06;5007186;28;4234;-67
2023/07/27 11:08:03;;;;;;;;;;;;;;;22.82;51.06;100397.19;4971147;28;4427;-68
2023/07/27 11:10:29;;;;;;;;;;;;;;;22.91;51.16;100396.72;4971705;28;4542;-67
2023/07/27 11:12:57;;;;;;;;;;;;;;;22.88;51.18;100398.06;4973346;28;3894;-68
2023/07/27 11:15:24;;;;;;;;;;;;;;;22.89;51.17;100393.78;4973858;28;4179;-67
2023/07/27 11:17:53;;;;;;;;;;;;;;;22.85;51.06;100390.75;4973048;28;4314;-71
2023/07/27 11:20:21;;;;;;;;;;;;;;;22.94;51.43;100388.84;4980052;28;4184;-71
2023/07/27 11:22:47;;;;;;;;;;;;;;;23.07;50.80;100387.09;4974368;28;3983;-73
2023/07/27 11:25:14;;;;;;;;;;;;;;;23.09;50.87;100384.22;4983936;28;4106;-73
2023/07/27 11:27:40;;;;;;;;;;;;;;;23.13;50.75;100381.44;4976862;28;4031;-79
2023/07/27 11:30:09;;;;;;;;;;;;;;;23.15;50.73;100367.78;4979633;28;4112;-79
2023/07/27 11:32:35;;;;;;;;;;;;;;;23.13;50.57;100375.69;4972847;28;4087;-71
2023/07/27 11:35:02;;;;;;;;;;;;;;;22.93;51.58;100378.69;4969578;28;4089;-75
2023/07/27 11:37:31;;;;;;;;;;;;;;;22.86;51.87;100372.03;4970751;28;4240;-73
2023/07/27 11:39:57;;;;;;;;;;;;;;;22.84;51.58;100363.31;4972195;28;4159;-74
2023/07/27 11:42:28;;;;;;;;;;;;;;;22.83;51.81;100361.84;4971100;28;4124;-73
2023/07/27 11:44:57;;;;;;;;;;;;;;;22.86;52.03;100354.72;4965891;28;4035;-73
2023/07/27 11:47:23;;;;;;;;;;;;;;;23.00;52.00;100352.25;4974530;28;4172;-73
2023/07/27 11:49:50;;;;;;;;;;;;;;;23.12;51.57;100351.13;4972673;28;4160;-73
2023/07/27 11:52:19;;;;;;;;;;;;;;;23.06;51.38;100345.91;4990068;28;4030;-73
2023/07/27 11:54:50;;;;;;;;;;;;;;;23.11;51.29;100344.59;4975135;28;4452;-72
2023/07/27 11:57:16;;;;;;;;;;;;;;;23.09;51.48;100335.13;4973701;28;4089;-72
2023/07/27 11:59:57;;;;;;;;;;;;;;;23.10;51.54;100342.38;4976622;28;4151;-77
2023/07/27 12:02:24;;;;;;;;;;;;;;;23.13;51.27;100343.91;4986615;28;4191;-79
2023/07/27 12:04:53;;;;;;;;;;;;;;;23.24;51.35;100339.88;4987158;28;4093;-77
2023/07/27 12:07:20;;;;;;;;;;;;;;;23.40;51.11;100337.41;4982582;28;4411;-75
2023/07/27 12:09:51;;;;;;;;;;;;;;;23.42;50.84;100331.69;4983041;28;4116;-75
2023/07/27 12:12:56;;;;;;;;;;;;;;;23.47;50.61;100326.00;4989122;28;4074;-73
2023/07/27 12:15:43;;;;;;;;;;;;;;;23.33;50.82;100327.09;4988084;28;4159;-77
2023/07/27 12:18:30;;;;;;;;;;;;;;;23.21;50.87;100323.91;4997001;28;4072;-75
2023/07/27 12:21:15;;;;;;;;;;;;;;;23.07;51.80;100314.88;4992841;28;4070;-73
2023/07/27 12:23:45;;;;;;;;;;;;;;;23.01;51.40;100318.34;4970003;28;4146;-71
2023/07/27 12:26:11;;;;;;;;;;;;;;;22.88;52.17;100317.22;4970282;28;4049;-71
2023/07/27 12:28:41;;;;;;;;;;;;;;;23.21;51.98;100323.91;4978555;28;4190;-79
2023/07/27 12:31:09;;;;;;;;;;;;;;;23.36;51.25;100311.28;4988629;28;4361;-78
2023/07/27 12:33:38;;;;;;;;;;;;;;;23.44;51.27;100315.81;4981985;28;4050;-79
2023/07/27 12:36:05;;;;;;;;;;;;;;;23.39;50.94;100307.06;4987668;28;4415;-80
2023/07/27 12:38:31;;;;;;;;;;;;;;;23.43;50.81;100297.72;4985975;28;3946;-81
2023/07/27 12:41:01;;;;;;;;;;;;;;;23.42;50.80;100288.34;4988472;28;4177;-71
2023/07/27 12:43:27;;;;;;;;;;;;;;;23.04;51.99;100288.09;4977317;28;4000;-67
2023/07/27 12:45:54;;;;;;;;;;;;;;;22.91;52.14;100286.28;4971004;28;4186;-69
2023/07/27 12:48:20;;;;;;;;;;;;;;;22.83;52.78;100292.56;4975857;28;4047;-71
2023/07/27 12:50:46;;;;;;;;;;;;;;;22.99;52.21;100293.00;4982472;28;4501;-68